createdAt,value
2017-12-19T00:00:44.239Z,2.39
2017-12-19T00:02:12.451Z,2.39
2017-12-19T00:03:38.601Z,2.38
2017-12-19T00:05:05.617Z,2.37
2017-12-19T00:06:33.754Z,2.33
2017-12-19T00:08:00.944Z,2.34
2017-12-19T00:09:27.161Z,2.34
2017-12-19T00:10:54.391Z,2.38
2017-12-19T00:12:21.616Z,2.35
2017-12-19T00:13:48.706Z,2.32
2017-12-19T00:15:15.907Z,2.30
2017-12-19T00:16:43.081Z,2.32
2017-12-19T00:18:10.178Z,2.37
2017-12-19T00:19:38.223Z,2.40
2017-12-19T00:21:04.567Z,2.41
2017-12-19T00:22:32.773Z,2.41
2017-12-19T00:23:58.791Z,2.42
2017-12-19T00:25:26.131Z,2.45
2017-12-19T00:26:54.302Z,2.44
2017-12-19T00:28:20.665Z,2.46
2017-12-19T00:29:47.726Z,2.46
2017-12-19T00:31:15.920Z,2.48
2017-12-19T00:32:42.130Z,2.54
2017-12-19T00:34:09.197Z,2.56
2017-12-19T00:35:37.419Z,2.61
2017-12-19T00:37:03.723Z,2.58
2017-12-19T00:38:31.069Z,2.53
2017-12-19T00:39:58.362Z,2.50
2017-12-19T00:41:25.554Z,2.47
2017-12-19T00:42:52.703Z,2.51
2017-12-19T00:44:20.912Z,2.55
2017-12-19T00:45:47.244Z,2.53
2017-12-19T00:47:15.472Z,2.52
2017-12-19T00:48:42.574Z,2.51
2017-12-19T00:50:08.624Z,2.46
2017-12-19T00:51:36.792Z,2.42
2017-12-19T00:53:04.070Z,2.39
2017-12-19T00:54:30.389Z,2.37
2017-12-19T00:55:58.541Z,2.34
2017-12-19T00:57:24.597Z,2.35
2017-12-19T00:58:51.924Z,2.38
2017-12-19T01:00:19.199Z,2.42
2017-12-19T01:01:46.439Z,2.44
2017-12-19T01:03:14.760Z,2.42
2017-12-19T01:04:41.849Z,2.42
2017-12-19T01:06:07.890Z,2.41
2017-12-19T01:07:36.162Z,2.43
2017-12-19T01:09:03.252Z,2.44
2017-12-19T01:10:29.401Z,2.47
2017-12-19T01:11:56.611Z,2.51
2017-12-19T01:13:24.888Z,2.56
2017-12-19T01:14:51.103Z,2.61
2017-12-19T01:16:18.415Z,2.67
2017-12-19T01:17:45.600Z,2.71
2017-12-19T01:19:12.704Z,2.75
2017-12-19T01:20:40.889Z,2.75
2017-12-19T01:22:08.061Z,2.76
2017-12-19T01:23:34.435Z,2.77
2017-12-19T01:25:01.637Z,2.78
2017-12-19T01:26:28.575Z,2.81
2017-12-19T01:27:56.636Z,2.85
2017-12-19T01:29:23.776Z,2.87
2017-12-19T01:30:50.865Z,2.89
2017-12-19T01:32:17.915Z,2.91
2017-12-19T01:33:44.194Z,2.88
2017-12-19T01:35:12.451Z,2.89
2017-12-19T01:36:38.689Z,2.90
2017-12-19T01:38:05.869Z,2.92
2017-12-19T01:39:33.235Z,2.94
2017-12-19T01:41:01.489Z,2.96
2017-12-19T01:42:27.798Z,2.95
2017-12-19T01:43:56.163Z,2.92
2017-12-19T01:45:22.456Z,2.86
2017-12-19T01:46:49.637Z,2.86
2017-12-19T01:48:17.930Z,2.89
2017-12-19T01:49:45.145Z,2.86
2017-12-19T01:51:12.438Z,2.83
2017-12-19T01:52:39.590Z,2.83
2017-12-19T01:54:05.911Z,2.83
2017-12-19T01:55:34.304Z,2.82
2017-12-19T01:57:01.447Z,2.78
2017-12-19T01:58:28.738Z,2.80
2017-12-19T01:59:54.999Z,2.80
2017-12-19T02:01:23.211Z,2.84
2017-12-19T02:02:50.497Z,2.86
2017-12-19T02:04:16.588Z,2.80
2017-12-19T02:05:44.773Z,2.82
2017-12-19T02:07:11.051Z,2.85
2017-12-19T02:08:38.200Z,2.87
2017-12-19T02:10:06.327Z,2.87
2017-12-19T02:11:32.559Z,2.87
2017-12-19T02:12:59.645Z,2.83
2017-12-19T02:14:28.038Z,2.75
2017-12-19T02:15:54.104Z,2.76
2017-12-19T02:17:21.435Z,2.70
2017-12-19T02:18:48.662Z,2.65
2017-12-19T02:20:15.901Z,2.64
2017-12-19T02:21:43.141Z,2.63
2017-12-19T02:23:11.247Z,2.59
2017-12-19T02:24:37.271Z,2.55
2017-12-19T02:26:04.265Z,2.52
2017-12-19T02:27:32.292Z,2.55
2017-12-19T02:28:58.411Z,2.53
2017-12-19T02:30:25.677Z,2.52
2017-12-19T02:31:53.878Z,2.53
2017-12-19T02:33:20.139Z,2.55
2017-12-19T02:34:47.458Z,2.56
2017-12-19T02:36:15.460Z,2.55
2017-12-19T02:37:41.630Z,2.58
2017-12-19T02:39:08.684Z,2.59
2017-12-19T02:40:36.070Z,2.64
2017-12-19T02:42:04.310Z,2.69
2017-12-19T02:43:31.641Z,2.75
2017-12-19T02:44:58.786Z,2.70
2017-12-19T02:46:25.137Z,2.73
2017-12-19T02:47:53.459Z,2.78
2017-12-19T02:49:20.757Z,2.82
2017-12-19T02:50:48.023Z,2.86
2017-12-19T02:52:15.261Z,2.89
2017-12-19T02:53:41.342Z,2.93
2017-12-19T02:55:08.459Z,2.96
2017-12-19T02:56:36.734Z,2.99
2017-12-19T02:58:04.104Z,3.01
2017-12-19T02:59:30.196Z,3.04
2017-12-19T03:00:57.440Z,3.06
2017-12-19T03:02:25.594Z,3.08
2017-12-19T03:03:53.157Z,3.11
2017-12-19T03:05:20.463Z,3.12
2017-12-19T03:06:47.496Z,3.13
2017-12-19T03:08:13.761Z,3.14
2017-12-19T03:09:41.909Z,3.16
2017-12-19T03:11:08.061Z,3.18
2017-12-19T03:12:35.332Z,3.18
2017-12-19T03:14:02.360Z,3.19
2017-12-19T03:15:30.580Z,3.20
2017-12-19T03:16:56.941Z,3.20
2017-12-19T03:18:25.145Z,3.20
2017-12-19T03:19:51.440Z,3.15
2017-12-19T03:21:19.333Z,3.09
2017-12-19T03:22:45.648Z,3.10
2017-12-19T03:24:13.692Z,3.11
2017-12-19T03:25:39.956Z,3.10
2017-12-19T03:27:07.214Z,2.99
2017-12-19T03:28:34.428Z,2.91
2017-12-19T03:30:02.715Z,2.84
2017-12-19T03:31:30.168Z,2.82
2017-12-19T03:32:57.403Z,2.79
2017-12-19T03:34:24.642Z,2.78
2017-12-19T03:35:50.789Z,2.78
2017-12-19T03:37:19.163Z,2.80
2017-12-19T03:38:46.316Z,2.77
2017-12-19T03:40:12.526Z,2.73
2017-12-19T03:41:39.819Z,2.73
2017-12-19T03:43:08.104Z,2.77
2017-12-19T03:44:35.117Z,2.81
2017-12-19T03:46:01.163Z,2.83
2017-12-19T03:47:28.496Z,2.86
2017-12-19T03:48:56.853Z,2.91
2017-12-19T03:50:23.184Z,2.94
2017-12-19T03:51:51.475Z,2.89
2017-12-19T03:53:17.618Z,2.86
2017-12-19T03:54:44.850Z,2.89
2017-12-19T03:56:11.985Z,2.91
2017-12-19T03:57:39.066Z,2.92
2017-12-19T03:59:06.367Z,2.93
2017-12-19T04:00:33.544Z,2.95
2017-12-19T04:02:01.801Z,2.98
2017-12-19T04:03:28.172Z,2.99
2017-12-19T04:04:55.449Z,2.95
2017-12-19T04:06:23.881Z,2.95
2017-12-19T04:07:50.014Z,2.96
2017-12-19T04:09:18.265Z,2.92
2017-12-19T04:10:45.567Z,2.88
2017-12-19T04:12:12.637Z,2.90
2017-12-19T04:13:38.826Z,2.86
2017-12-19T04:15:06.001Z,2.82
2017-12-19T04:16:34.044Z,2.79
2017-12-19T04:18:00.420Z,2.79
2017-12-19T04:19:27.644Z,2.74
2017-12-19T04:20:55.793Z,2.78
2017-12-19T04:22:22.051Z,2.79
2017-12-19T04:23:49.384Z,2.75
2017-12-19T04:25:16.726Z,2.79
2017-12-19T04:26:44.827Z,2.82
2017-12-19T04:28:10.982Z,2.86
2017-12-19T04:29:38.053Z,2.92
2017-12-19T04:31:05.418Z,2.96
2017-12-19T04:32:33.658Z,3.00
2017-12-19T04:33:59.812Z,2.99
2017-12-19T04:35:28.172Z,2.99
2017-12-19T04:36:54.190Z,2.96
2017-12-19T04:38:22.535Z,2.90
2017-12-19T04:39:49.779Z,2.90
2017-12-19T04:41:17.029Z,2.93
2017-12-19T04:42:43.200Z,2.93
2017-12-19T04:44:10.444Z,2.94
2017-12-19T04:45:38.433Z,2.96
2017-12-19T04:47:04.735Z,2.93
2017-12-19T04:48:31.972Z,2.94
2017-12-19T04:49:59.158Z,2.95
2017-12-19T04:51:26.468Z,2.93
2017-12-19T04:52:53.646Z,2.84
2017-12-19T04:54:21.865Z,2.75
2017-12-19T04:55:49.089Z,2.74
2017-12-19T04:57:15.198Z,2.71
2017-12-19T04:58:43.484Z,2.72
2017-12-19T05:00:09.620Z,2.72
2017-12-19T05:01:37.760Z,2.72
2017-12-19T05:03:05.286Z,2.71
2017-12-19T05:04:32.462Z,2.72
2017-12-19T05:05:58.894Z,2.71
2017-12-19T05:07:26.201Z,2.72
2017-12-19T05:08:53.267Z,2.69
2017-12-19T05:10:20.504Z,2.67
2017-12-19T05:11:48.846Z,2.68
2017-12-19T05:13:16.106Z,2.69
2017-12-19T05:14:43.256Z,2.68
2017-12-19T05:16:09.473Z,2.69
2017-12-19T05:17:36.463Z,2.68
2017-12-19T05:19:04.556Z,2.71
2017-12-19T05:20:31.787Z,2.73
2017-12-19T05:21:59.002Z,2.73
2017-12-19T05:23:26.161Z,2.71
2017-12-19T05:24:52.410Z,2.68
2017-12-19T05:26:20.426Z,2.66
2017-12-19T05:27:47.732Z,2.61
2017-12-19T05:29:14.004Z,2.58
2017-12-19T05:30:42.008Z,2.57
2017-12-19T05:32:08.032Z,2.55
2017-12-19T05:33:35.268Z,2.56
2017-12-19T05:35:03.402Z,2.58
2017-12-19T05:36:29.438Z,2.64
2017-12-19T05:37:56.800Z,2.67
2017-12-19T05:39:23.962Z,2.66
2017-12-19T05:40:52.249Z,2.65
2017-12-19T05:42:18.363Z,2.64
2017-12-19T05:43:45.671Z,2.65
2017-12-19T05:45:12.950Z,2.63
2017-12-19T05:46:40.152Z,2.62
2017-12-19T05:48:08.522Z,2.62
2017-12-19T05:49:34.742Z,2.60
2017-12-19T05:51:02.956Z,2.61
2017-12-19T05:52:28.984Z,2.62
2017-12-19T05:53:56.205Z,2.61
2017-12-19T05:55:23.509Z,2.64
2017-12-19T05:56:51.898Z,2.68
2017-12-19T05:58:19.140Z,2.69
2017-12-19T05:59:45.175Z,2.69
2017-12-19T06:01:13.433Z,2.71
2017-12-19T06:02:39.607Z,2.69
2017-12-19T06:04:07.887Z,2.72
2017-12-19T06:05:34.127Z,2.72
2017-12-19T06:07:02.393Z,2.69
2017-12-19T06:08:29.476Z,2.71
2017-12-19T06:09:55.868Z,2.73
2017-12-19T06:11:23.065Z,2.75
2017-12-19T06:12:50.351Z,2.76
2017-12-19T06:14:17.664Z,2.78
2017-12-19T06:15:44.853Z,2.80
2017-12-19T06:17:13.257Z,2.81
2017-12-19T06:18:39.120Z,2.80
2017-12-19T06:20:07.245Z,2.78
2017-12-19T06:21:33.468Z,2.78
2017-12-19T06:23:01.741Z,2.77
2017-12-19T06:24:28.830Z,2.80
2017-12-19T06:25:55.147Z,2.76
2017-12-19T06:27:23.396Z,2.75
2017-12-19T06:28:49.533Z,2.74
2017-12-19T06:30:17.605Z,2.75
2017-12-19T06:31:43.863Z,2.77
2017-12-19T06:33:10.749Z,2.79
2017-12-19T06:34:37.923Z,2.83
2017-12-19T06:36:05.207Z,2.82
2017-12-19T06:37:32.518Z,2.80
2017-12-19T06:39:00.767Z,2.77
2017-12-19T06:40:26.990Z,2.75
2017-12-19T06:41:54.326Z,2.80
2017-12-19T06:43:21.679Z,2.84
2017-12-19T06:44:49.016Z,2.86
2017-12-19T06:46:16.140Z,2.85
2017-12-19T06:47:43.416Z,2.81
2017-12-19T06:49:10.644Z,2.80
2017-12-19T06:50:37.658Z,2.82
2017-12-19T06:52:04.810Z,2.83
2017-12-19T06:53:33.252Z,2.82
2017-12-19T06:55:00.580Z,2.80
2017-12-19T06:56:27.567Z,2.81
2017-12-19T06:57:53.906Z,2.80
2017-12-19T06:59:21.130Z,2.81
2017-12-19T07:00:48.317Z,2.83
2017-12-19T07:02:16.502Z,2.84
2017-12-19T07:03:43.703Z,2.84
2017-12-19T07:05:09.979Z,2.83
2017-12-19T07:06:38.297Z,2.82
2017-12-19T07:08:05.520Z,2.82
2017-12-19T07:09:31.816Z,2.85
2017-12-19T07:10:58.915Z,2.89
2017-12-19T07:12:27.124Z,2.94
2017-12-19T07:13:54.363Z,2.94
2017-12-19T07:15:20.769Z,2.95
2017-12-19T07:16:48.991Z,2.97
2017-12-19T07:18:15.275Z,2.99
2017-12-19T07:19:43.453Z,3.04
2017-12-19T07:21:10.762Z,3.07
2017-12-19T07:22:36.731Z,3.09
2017-12-19T07:24:04.012Z,3.09
2017-12-19T07:25:31.360Z,3.13
2017-12-19T07:26:59.689Z,3.16
2017-12-19T07:28:25.818Z,3.19
2017-12-19T07:29:54.008Z,3.20
2017-12-19T07:31:21.346Z,3.20
2017-12-19T07:32:47.443Z,3.16
2017-12-19T07:34:15.819Z,3.12
2017-12-19T07:35:42.932Z,3.15
2017-12-19T07:37:10.255Z,3.18
2017-12-19T07:38:37.415Z,3.21
2017-12-19T07:40:04.886Z,3.20
2017-12-19T07:41:31.240Z,3.21
2017-12-19T07:42:59.388Z,3.24
2017-12-19T07:44:26.569Z,3.23
2017-12-19T07:45:53.911Z,3.26
2017-12-19T07:47:20.132Z,3.25
2017-12-19T07:48:47.371Z,3.21
2017-12-19T07:50:15.746Z,3.23
2017-12-19T07:51:41.852Z,3.22
2017-12-19T07:53:09.062Z,3.22
2017-12-19T07:54:37.327Z,3.18
2017-12-19T07:56:03.582Z,3.16
2017-12-19T07:57:30.980Z,3.13
2017-12-19T07:58:58.294Z,3.16
2017-12-19T08:00:25.700Z,3.14
2017-12-19T08:01:52.653Z,3.12
2017-12-19T08:03:20.928Z,3.16
2017-12-19T08:04:47.944Z,3.15
2017-12-19T08:06:14.045Z,3.18
2017-12-19T08:07:41.251Z,3.20
2017-12-19T08:09:08.303Z,3.22
2017-12-19T08:10:36.483Z,3.22
2017-12-19T08:12:02.647Z,3.25
2017-12-19T08:13:29.832Z,3.27
2017-12-19T08:14:57.989Z,3.26
2017-12-19T08:16:24.306Z,3.25
2017-12-19T08:17:52.471Z,3.24
2017-12-19T08:19:18.708Z,3.25
2017-12-19T08:20:46.900Z,3.24
2017-12-19T08:22:13.173Z,3.27
2017-12-19T08:23:41.259Z,3.28
2017-12-19T08:25:07.455Z,3.29
2017-12-19T08:26:34.627Z,3.27
2017-12-19T08:28:02.837Z,3.26
2017-12-19T08:29:30.183Z,3.29
2017-12-19T08:30:57.483Z,3.29
2017-12-19T08:32:24.652Z,3.28
2017-12-19T08:33:51.776Z,3.30
2017-12-19T08:35:19.140Z,3.29
2017-12-19T08:36:46.513Z,3.28
2017-12-19T08:38:13.813Z,3.29
2017-12-19T08:39:40.817Z,3.31
2017-12-19T08:41:08.126Z,3.31
2017-12-19T08:42:34.322Z,3.31
2017-12-19T08:44:01.510Z,3.35
2017-12-19T08:45:28.850Z,3.41
2017-12-19T08:46:56.906Z,3.41
2017-12-19T08:48:23.264Z,3.45
2017-12-19T08:49:50.519Z,3.50
2017-12-19T08:51:18.835Z,3.52
2017-12-19T08:52:46.163Z,3.51
2017-12-19T08:54:13.170Z,3.52
2017-12-19T08:55:40.375Z,3.57
2017-12-19T08:57:07.758Z,3.61
2017-12-19T08:58:34.052Z,3.65
2017-12-19T09:00:02.330Z,3.68
2017-12-19T09:01:28.606Z,3.70
2017-12-19T09:02:56.930Z,3.71
2017-12-19T09:04:22.880Z,3.73
2017-12-19T09:05:50.221Z,3.75
2017-12-19T09:07:18.417Z,3.78
2017-12-19T09:08:44.580Z,3.81
2017-12-19T09:10:12.746Z,3.85
2017-12-19T09:11:38.891Z,3.82
2017-12-19T09:13:06.265Z,3.82
2017-12-19T09:14:34.685Z,3.78
2017-12-19T09:16:01.845Z,3.77
2017-12-19T09:17:28.069Z,3.74
2017-12-19T09:18:56.310Z,3.74
2017-12-19T09:20:22.648Z,3.72
2017-12-19T09:21:49.995Z,3.76
2017-12-19T09:23:17.170Z,3.77
2017-12-19T09:24:44.408Z,3.75
2017-12-19T09:26:12.566Z,3.75
2017-12-19T09:27:38.819Z,3.80
2017-12-19T09:29:05.971Z,3.84
2017-12-19T09:30:33.274Z,3.89
2017-12-19T09:32:01.474Z,3.93
2017-12-19T09:33:27.725Z,3.93
2017-12-19T09:34:54.900Z,3.90
2017-12-19T09:36:23.245Z,3.89
2017-12-19T09:37:49.551Z,3.92
2017-12-19T09:39:16.805Z,3.94
2017-12-19T09:40:45.196Z,3.96
2017-12-19T09:42:11.282Z,3.98
2017-12-19T09:43:39.205Z,4.00
2017-12-19T09:45:05.607Z,4.01
2017-12-19T09:46:32.775Z,4.02
2017-12-19T09:47:59.905Z,4.04
2017-12-19T09:49:28.264Z,4.05
2017-12-19T09:50:54.243Z,4.04
2017-12-19T09:52:21.596Z,4.04
2017-12-19T09:53:49.808Z,4.05
2017-12-19T09:55:16.028Z,4.06
2017-12-19T09:56:43.197Z,4.05
2017-12-19T09:58:10.369Z,4.04
2017-12-19T09:59:38.610Z,4.05
2017-12-19T10:01:05.774Z,4.07
2017-12-19T10:02:31.932Z,4.09
2017-12-19T10:04:00.249Z,4.13
2017-12-19T10:05:27.492Z,4.16
2017-12-19T10:06:54.729Z,4.19
2017-12-19T10:08:22.123Z,4.22
2017-12-19T10:09:49.086Z,4.25
2017-12-19T10:11:15.516Z,4.25
2017-12-19T10:12:42.642Z,4.26
2017-12-19T10:14:10.692Z,4.27
2017-12-19T10:15:36.850Z,4.31
2017-12-19T10:17:03.986Z,4.36
2017-12-19T10:18:31.389Z,4.40
2017-12-19T10:19:58.636Z,4.41
2017-12-19T10:21:26.124Z,4.43
2017-12-19T10:22:53.226Z,4.47
2017-12-19T10:24:21.580Z,4.47
2017-12-19T10:25:47.793Z,4.50
2017-12-19T10:27:16.101Z,4.49
2017-12-19T10:28:42.372Z,4.51
2017-12-19T10:30:09.620Z,4.53
2017-12-19T10:31:36.859Z,4.53
2017-12-19T10:33:05.015Z,4.50
2017-12-19T10:34:31.223Z,4.48
2017-12-19T10:35:59.523Z,4.50
2017-12-19T10:37:25.687Z,4.53
2017-12-19T10:38:53.706Z,4.56
2017-12-19T10:40:20.883Z,4.58
2017-12-19T10:41:46.973Z,4.58
2017-12-19T10:43:14.353Z,4.58
2017-12-19T10:44:41.705Z,4.57
2017-12-19T10:46:08.880Z,4.60
2017-12-19T10:47:36.195Z,4.63
2017-12-19T10:49:04.605Z,4.63
2017-12-19T10:50:30.750Z,4.66
2017-12-19T10:51:58.086Z,4.70
2017-12-19T10:53:25.405Z,4.70
2017-12-19T10:54:52.582Z,4.69
2017-12-19T10:56:19.840Z,4.68
2017-12-19T10:57:47.147Z,4.68
2017-12-19T10:59:14.355Z,4.69
2017-12-19T11:00:41.580Z,4.68
2017-12-19T11:02:08.784Z,4.71
2017-12-19T11:03:35.872Z,4.72
2017-12-19T11:05:03.194Z,4.75
2017-12-19T11:06:30.549Z,4.77
2017-12-19T11:07:58.691Z,4.79
2017-12-19T11:09:25.963Z,4.80
2017-12-19T11:10:52.387Z,4.83
2017-12-19T11:12:19.546Z,4.85
2017-12-19T11:13:47.815Z,4.87
2017-12-19T11:15:15.069Z,4.90
2017-12-19T11:16:41.442Z,4.92
2017-12-19T11:18:09.587Z,4.95
2017-12-19T11:19:36.789Z,4.94
2017-12-19T11:21:03.919Z,4.92
2017-12-19T11:22:30.046Z,4.91
2017-12-19T11:23:57.142Z,4.93
2017-12-19T11:25:25.386Z,4.93
2017-12-19T11:26:52.483Z,4.92
2017-12-19T11:28:18.729Z,4.93
2017-12-19T11:29:46.030Z,4.94
2017-12-19T11:31:14.381Z,4.96
2017-12-19T11:32:40.525Z,4.96
2017-12-19T11:34:08.902Z,4.94
2017-12-19T11:35:35.240Z,4.94
2017-12-19T11:37:02.556Z,4.96
2017-12-19T11:38:29.924Z,4.99
2017-12-19T11:39:58.133Z,4.99
2017-12-19T11:41:24.401Z,5.00
2017-12-19T11:42:52.693Z,4.99
2017-12-19T11:44:18.982Z,4.97
2017-12-19T11:45:47.354Z,4.98
2017-12-19T11:47:13.521Z,4.98
2017-12-19T11:48:41.702Z,4.98
2017-12-19T11:50:08.769Z,4.99
2017-12-19T11:51:34.967Z,5.01
2017-12-19T11:53:03.273Z,5.04
2017-12-19T11:54:29.490Z,5.06
2017-12-19T11:55:57.879Z,5.09
2017-12-19T11:57:24.057Z,5.10
2017-12-19T11:58:51.318Z,5.11
2017-12-19T12:00:18.658Z,5.13
2017-12-19T12:01:45.953Z,5.14
2017-12-19T12:03:13.165Z,5.15
2017-12-19T12:06:07.633Z,5.15
2017-12-19T12:07:34.882Z,5.16
2017-12-19T12:09:03.186Z,5.16
2017-12-19T12:10:29.421Z,5.18
2017-12-19T12:11:56.695Z,5.21
2017-12-19T12:13:23.933Z,5.20
2017-12-19T12:14:51.107Z,5.19
2017-12-19T12:16:18.356Z,5.21
2017-12-19T12:17:45.574Z,5.23
2017-12-19T12:19:12.823Z,5.24
2017-12-19T12:20:41.144Z,5.27
2017-12-19T12:22:08.538Z,5.29
2017-12-19T12:23:35.613Z,5.29
2017-12-19T12:25:01.854Z,5.29
2017-12-19T12:26:30.221Z,5.31
2017-12-19T12:27:56.459Z,5.32
2017-12-19T12:29:24.889Z,5.33
2017-12-19T12:30:51.937Z,5.33
2017-12-19T12:32:18.220Z,5.33
2017-12-19T12:33:46.511Z,5.32
2017-12-19T12:35:12.841Z,5.32
2017-12-19T12:36:41.002Z,5.32
2017-12-19T12:38:07.262Z,5.33
2017-12-19T12:39:34.507Z,5.33
2017-12-19T12:41:01.817Z,5.30
2017-12-19T12:42:29.858Z,5.29
2017-12-19T12:43:57.176Z,5.29
2017-12-19T12:45:23.325Z,5.27
2017-12-19T12:46:50.777Z,5.27
2017-12-19T12:48:17.913Z,5.27
2017-12-19T12:49:45.133Z,5.26
2017-12-19T12:51:13.431Z,5.27
2017-12-19T12:52:40.793Z,5.27
2017-12-19T12:54:06.974Z,5.25
2017-12-19T12:55:34.193Z,5.24
2017-12-19T12:57:01.493Z,5.23
2017-12-19T12:58:29.495Z,5.21
2017-12-19T12:59:55.963Z,5.20
2017-12-19T13:01:24.392Z,5.20
2017-12-19T13:02:50.542Z,5.19
2017-12-19T13:04:17.867Z,5.16
2017-12-19T13:05:46.058Z,5.14
2017-12-19T13:07:12.980Z,5.13
2017-12-19T13:08:39.289Z,5.14
2017-12-19T13:10:07.676Z,5.15
2017-12-19T13:11:33.856Z,5.15
2017-12-19T13:13:02.182Z,5.15
2017-12-19T13:14:28.454Z,5.12
2017-12-19T13:15:55.796Z,5.09
2017-12-19T13:17:22.937Z,5.06
2017-12-19T13:18:50.142Z,5.05
2017-12-19T13:20:17.420Z,5.04
2017-12-19T13:21:44.541Z,5.01
2017-12-19T13:23:11.713Z,4.98
2017-12-19T13:24:39.898Z,4.96
2017-12-19T13:26:06.109Z,4.95
2017-12-19T13:27:34.557Z,4.95
2017-12-19T13:29:00.716Z,4.94
2017-12-19T13:30:28.784Z,4.93
2017-12-19T13:31:55.134Z,4.91
2017-12-19T13:33:22.427Z,4.89
2017-12-19T13:34:49.887Z,4.89
2017-12-19T13:36:17.945Z,4.89
2017-12-19T13:37:44.113Z,4.90
2017-12-19T13:39:12.429Z,4.90
2017-12-19T13:40:38.619Z,4.89
2017-12-19T13:42:06.841Z,4.88
2017-12-19T13:43:34.223Z,4.88
2017-12-19T13:45:01.481Z,4.87
2017-12-19T13:46:27.579Z,4.87
2017-12-19T13:47:55.882Z,4.90
2017-12-19T13:49:23.048Z,4.90
2017-12-19T13:50:49.405Z,4.90
2017-12-19T13:52:16.680Z,4.90
2017-12-19T13:53:43.951Z,4.90
2017-12-19T13:55:12.192Z,4.89
2017-12-19T13:56:39.225Z,4.87
2017-12-19T13:58:06.502Z,4.86
2017-12-19T13:59:33.844Z,4.86
2017-12-19T14:01:01.180Z,4.89
2017-12-19T14:02:27.419Z,4.93
2017-12-19T14:03:55.597Z,4.91
2017-12-19T14:05:21.998Z,4.91
2017-12-19T14:06:49.315Z,4.91
2017-12-19T14:08:16.480Z,4.92
2017-12-19T14:09:44.852Z,4.93
2017-12-19T14:11:11.003Z,4.94
2017-12-19T14:12:37.965Z,4.93
2017-12-19T14:14:05.277Z,4.92
2017-12-19T14:15:32.628Z,4.90
2017-12-19T14:17:00.602Z,4.87
2017-12-19T14:18:26.972Z,4.88
2017-12-19T14:19:54.382Z,4.89
2017-12-19T14:21:21.721Z,4.88
2017-12-19T14:22:48.781Z,4.88
2017-12-19T14:24:16.020Z,4.87
2017-12-19T14:25:43.294Z,4.88
2017-12-19T14:27:11.464Z,4.86
2017-12-19T14:28:37.866Z,4.86
2017-12-19T14:30:06.198Z,4.85
2017-12-19T14:31:32.584Z,4.85
2017-12-19T14:32:59.792Z,4.86
2017-12-19T14:34:28.138Z,4.87
2017-12-19T14:35:54.471Z,4.87
2017-12-19T14:37:21.744Z,4.88
2017-12-19T14:38:49.891Z,4.87
2017-12-19T14:40:16.163Z,4.88
2017-12-19T14:41:43.435Z,4.89
2017-12-19T14:43:11.593Z,4.89
2017-12-19T14:44:37.884Z,4.91
2017-12-19T14:46:05.030Z,4.92
2017-12-19T14:47:32.354Z,4.93
2017-12-19T14:48:59.578Z,4.94
2017-12-19T14:50:27.827Z,4.92
2017-12-19T14:51:55.084Z,4.92
2017-12-19T14:53:22.373Z,4.92
2017-12-19T14:54:49.571Z,4.91
2017-12-19T14:56:16.671Z,4.91
2017-12-19T14:57:42.920Z,4.90
2017-12-19T14:59:11.275Z,4.90
2017-12-19T15:00:37.640Z,4.88
2017-12-19T15:02:05.841Z,4.88
2017-12-19T15:03:33.357Z,4.88
2017-12-19T15:05:00.703Z,4.89
2017-12-19T15:06:27.723Z,4.90
2017-12-19T15:07:54.201Z,4.88
2017-12-19T15:09:21.448Z,4.90
2017-12-19T15:10:48.510Z,4.89
2017-12-19T15:12:16.557Z,4.86
2017-12-19T15:13:42.861Z,4.86
2017-12-19T15:15:10.049Z,4.87
2017-12-19T15:16:37.272Z,4.88
2017-12-19T15:18:04.601Z,4.89
2017-12-19T15:19:31.759Z,4.90
2017-12-19T15:20:59.097Z,4.90
2017-12-19T15:22:27.536Z,4.91
2017-12-19T15:23:53.638Z,4.91
2017-12-19T15:25:20.879Z,4.91
2017-12-19T15:26:48.219Z,4.90
2017-12-19T15:28:15.510Z,4.87
2017-12-19T15:29:42.681Z,4.85
2017-12-19T15:31:09.778Z,4.82
2017-12-19T15:32:38.199Z,4.78
2017-12-19T15:34:04.253Z,4.75
2017-12-19T15:35:31.690Z,4.76
2017-12-19T15:36:58.895Z,4.78
2017-12-19T15:38:27.252Z,4.80
2017-12-19T15:39:54.300Z,4.80
2017-12-19T15:41:21.608Z,4.80
2017-12-19T15:42:47.906Z,4.79
2017-12-19T15:44:16.290Z,4.81
2017-12-19T15:45:43.520Z,4.82
2017-12-19T15:47:09.431Z,4.83
2017-12-19T15:48:36.628Z,4.86
2017-12-19T15:50:05.016Z,4.87
2017-12-19T15:51:31.294Z,4.88
2017-12-19T15:52:59.438Z,4.87
2017-12-19T15:54:26.766Z,4.85
2017-12-19T15:55:53.691Z,4.83
2017-12-19T15:57:20.077Z,4.82
2017-12-19T15:58:47.443Z,4.79
2017-12-19T16:00:14.624Z,4.76
2017-12-19T16:01:41.781Z,4.71
2017-12-19T16:03:08.911Z,4.69
2017-12-19T16:04:36.125Z,4.70
2017-12-19T16:06:03.326Z,4.70
2017-12-19T16:07:31.699Z,4.69
2017-12-19T16:08:57.846Z,4.69
2017-12-19T16:10:26.125Z,4.68
2017-12-19T16:11:53.320Z,4.68
2017-12-19T16:13:20.623Z,4.64
2017-12-19T16:14:46.853Z,4.61
2017-12-19T16:16:14.055Z,4.60
2017-12-19T16:17:41.232Z,4.59
2017-12-19T16:19:09.536Z,4.57
2017-12-19T16:20:35.836Z,4.55
2017-12-19T16:22:03.974Z,4.55
2017-12-19T16:23:30.128Z,4.55
2017-12-19T16:24:57.336Z,4.51
2017-12-19T16:26:24.562Z,4.50
2017-12-19T16:27:52.481Z,4.52
2017-12-19T16:29:18.889Z,4.55
2017-12-19T16:30:47.074Z,4.56
2017-12-19T16:32:14.467Z,4.56
2017-12-19T16:33:41.482Z,4.53
2017-12-19T16:35:07.895Z,4.55
2017-12-19T16:36:35.062Z,4.57
2017-12-19T16:38:03.125Z,4.56
2017-12-19T16:39:30.255Z,4.58
2017-12-19T16:40:57.420Z,4.60
2017-12-19T16:42:23.814Z,4.59
2017-12-19T16:43:50.998Z,4.54
2017-12-19T16:45:18.101Z,4.50
2017-12-19T16:46:45.532Z,4.49
2017-12-19T16:48:12.870Z,4.47
2017-12-19T16:49:40.137Z,4.47
2017-12-19T16:51:07.341Z,4.45
2017-12-19T16:52:35.615Z,4.42
2017-12-19T16:54:02.933Z,4.40
2017-12-19T16:55:29.099Z,4.36
2017-12-19T16:56:56.458Z,4.32
2017-12-19T16:58:23.717Z,4.28
2017-12-19T16:59:50.959Z,4.25
2017-12-19T17:01:19.079Z,4.25
2017-12-19T17:02:45.322Z,4.23
2017-12-19T17:04:12.685Z,4.23
2017-12-19T17:05:39.836Z,4.23
2017-12-19T17:07:07.092Z,4.24
2017-12-19T17:08:34.210Z,4.23
2017-12-19T17:10:01.553Z,4.19
2017-12-19T17:11:28.548Z,4.16
2017-12-19T17:12:55.941Z,4.13
2017-12-19T17:14:22.962Z,4.11
2017-12-19T17:15:50.056Z,4.11
2017-12-19T17:17:18.195Z,4.11
2017-12-19T17:18:44.539Z,4.12
2017-12-19T17:20:11.715Z,4.13
2017-12-19T17:21:38.987Z,4.13
2017-12-19T17:23:06.035Z,4.14
2017-12-19T17:24:33.332Z,4.15
2017-12-19T17:26:01.529Z,4.18
2017-12-19T17:27:28.899Z,4.21
2017-12-19T17:28:55.069Z,4.23
2017-12-19T17:30:23.442Z,4.26
2017-12-19T17:31:50.003Z,4.30
2017-12-19T17:33:16.880Z,4.34
2017-12-19T17:34:44.246Z,4.38
2017-12-19T17:36:12.755Z,4.42
2017-12-19T17:37:39.618Z,4.46
2017-12-19T17:39:05.734Z,4.49
2017-12-19T17:40:32.935Z,4.51
2017-12-19T17:41:59.987Z,4.52
2017-12-19T17:43:28.196Z,4.55
2017-12-19T17:44:54.552Z,4.57
2017-12-19T17:46:22.639Z,4.60
2017-12-19T17:47:48.818Z,4.62
2017-12-19T17:49:17.051Z,4.63
2017-12-19T17:50:43.351Z,4.64
2017-12-19T17:52:11.716Z,4.65
2017-12-19T17:53:37.581Z,4.66
2017-12-19T17:55:05.920Z,4.67
2017-12-19T17:56:32.977Z,4.68
2017-12-19T17:57:59.200Z,4.69
2017-12-19T17:59:26.338Z,4.69
2017-12-19T18:00:53.554Z,4.69
2017-12-19T18:02:20.695Z,4.66
2017-12-19T18:03:48.037Z,4.61
2017-12-19T18:05:15.246Z,4.51
2017-12-19T18:06:43.555Z,4.46
2017-12-19T18:08:09.703Z,4.40
2017-12-19T18:09:36.946Z,4.35
2017-12-19T18:11:05.287Z,4.36
2017-12-19T18:12:32.362Z,4.39
2017-12-19T18:13:59.548Z,4.42
2017-12-19T18:15:26.009Z,4.46
2017-12-19T18:16:54.247Z,4.48
2017-12-19T18:18:21.446Z,4.51
2017-12-19T18:19:47.855Z,4.53
2017-12-19T18:21:15.177Z,4.56
2017-12-19T18:22:43.464Z,4.57
2017-12-19T18:24:09.679Z,4.55
2017-12-19T18:25:36.957Z,4.54
2017-12-19T18:27:04.215Z,4.54
2017-12-19T18:28:31.493Z,4.55
2017-12-19T18:29:58.857Z,4.57
2017-12-19T18:31:26.210Z,4.59
2017-12-19T18:32:54.336Z,4.61
2017-12-19T18:34:21.772Z,4.63
2017-12-19T18:35:47.789Z,4.64
2017-12-19T18:37:15.042Z,4.65
2017-12-19T18:38:42.268Z,4.66
2017-12-19T18:40:10.555Z,4.66
2017-12-19T18:41:37.872Z,4.67
2017-12-19T18:43:05.036Z,4.66
2017-12-19T18:44:31.385Z,4.66
2017-12-19T18:45:58.549Z,4.65
2017-12-19T18:47:25.811Z,4.65
2017-12-19T18:48:53.019Z,4.65
2017-12-19T18:50:20.336Z,4.59
2017-12-19T18:51:47.548Z,4.57
2017-12-19T18:53:14.562Z,4.58
2017-12-19T18:54:42.611Z,4.59
2017-12-19T18:56:09.956Z,4.60
2017-12-19T18:57:37.295Z,4.62
2017-12-19T18:59:03.564Z,4.64
2017-12-19T19:00:31.898Z,4.65
2017-12-19T19:01:59.084Z,4.63
2017-12-19T19:03:26.500Z,4.64
2017-12-19T19:04:52.492Z,4.64
2017-12-19T19:06:20.579Z,4.59
2017-12-19T19:07:46.909Z,4.57
2017-12-19T19:09:14.165Z,4.57
2017-12-19T19:10:42.331Z,4.57
2017-12-19T19:12:08.251Z,4.58
2017-12-19T19:13:35.614Z,4.59
2017-12-19T19:15:02.759Z,4.58
2017-12-19T19:16:30.010Z,4.55
2017-12-19T19:17:58.251Z,4.55
2017-12-19T19:19:24.502Z,4.55
2017-12-19T19:20:52.893Z,4.55
2017-12-19T19:22:19.141Z,4.54